Terminal Aerodrome Forecast
Issued by NWS Grand Forks, ND

Home | Current Version | Previous Version | Graphics & Text | Print | Product List | Glossary On
Versions: 1 2 3 4 5 6 7 8 9 10 11 12 13 14 15 16 17 18
415
FTUS43 KFGF 212339
TAFFAR
TAF
KFAR 212339Z 2200/2224 26004KT P6SM BKN090
     FM220500 12004KT P6SM BKN090
     FM220800 34004KT P6SM BKN250
     FM220900 24004KT P6SM BKN250
     FM221100 30005KT P6SM BKN250
     FM221600 31008KT P6SM OVC015
     FM221900 33012KT P6SM OVC010
     FM222100 34014G23KT P6SM OVC008=

USA.gov is the U.S. government's official web portal to all federal, state and local government web resources and services.